sensor_id;sensor_type;location;lat;lon;timestamp;temperature;humidity
2523;DHT22;1272;53.332;9.860;2022-08-16T00:01:07;20.00;99.90
2523;DHT22;1272;53.332;9.860;2022-08-16T00:03:33;20.00;99.90
2523;DHT22;1272;53.332;9.860;2022-08-16T00:05:59;20.00;99.90
2523;DHT22;1272;53.332;9.860;2022-08-16T00:08:25;20.00;99.90
2523;DHT22;1272;53.332;9.860;2022-08-16T00:10:51;20.10;99.90
2523;DHT22;1272;53.332;9.860;2022-08-16T00:13:17;20.10;99.90
2523;DHT22;1272;53.332;9.860;2022-08-16T00:15:46;20.00;99.90
2523;DHT22;1272;53.332;9.860;2022-08-16T00:18:14;19.90;99.90
2523;DHT22;1272;53.332;9.860;2022-08-16T00:20:41;19.80;99.90
2523;DHT22;1272;53.332;9.860;2022-08-16T00:23:07;19.80;99.90
2523;DHT22;1272;53.332;9.860;2022-08-16T00:25:33;19.80;99.90
2523;DHT22;1272;53.332;9.860;2022-08-16T00:27:59;19.80;99.90
2523;DHT22;1272;53.332;9.860;2022-08-16T00:30:26;19.90;99.90
2523;DHT22;1272;53.332;9.860;2022-08-16T00:32:54;19.80;99.90
2523;DHT22;1272;53.332;9.860;2022-08-16T00:35:24;19.80;99.90
2523;DHT22;1272;53.332;9.860;2022-08-16T00:37:51;19.90;99.90
2523;DHT22;1272;53.332;9.860;2022-08-16T00:40:21;19.80;99.90
2523;DHT22;1272;53.332;9.860;2022-08-16T00:42:47;19.80;99.90
2523;DHT22;1272;53.332;9.860;2022-08-16T00:45:43;19.90;99.90
2523;DHT22;1272;53.332;9.860;2022-08-16T00:48:13;19.90;99.90
2523;DHT22;1272;53.332;9.860;2022-08-16T00:50:40;19.90;99.90
2523;DHT22;1272;53.332;9.860;2022-08-16T00:53:08;20.00;99.90
2523;DHT22;1272;53.332;9.860;2022-08-16T00:55:36;20.00;99.90
2523;DHT22;1272;53.332;9.860;2022-08-16T00:58:04;20.00;99.90
2523;DHT22;1272;53.332;9.860;2022-08-16T01:00:31;20.00;99.90
2523;DHT22;1272;53.332;9.860;2022-08-16T01:03:01;20.00;99.90
2523;DHT22;1272;53.332;9.860;2022-08-16T01:05:28;20.00;99.90
2523;DHT22;1272;53.332;9.860;2022-08-16T01:07:54;20.00;99.90
2523;DHT22;1272;53.332;9.860;2022-08-16T01:10:24;20.00;99.90
2523;DHT22;1272;53.332;9.860;2022-08-16T01:12:50;20.00;99.90
2523;DHT22;1272;53.332;9.860;2022-08-16T01:15:17;19.90;99.90
2523;DHT22;1272;53.332;9.860;2022-08-16T01:17:45;19.90;99.90
2523;DHT22;1272;53.332;9.860;2022-08-16T01:20:12;19.90;99.90
2523;DHT22;1272;53.332;9.860;2022-08-16T01:25:48;19.80;99.90
2523;DHT22;1272;53.332;9.860;2022-08-16T01:28:16;19.70;99.90
2523;DHT22;1272;53.332;9.860;2022-08-16T01:30:46;19.70;99.90
2523;DHT22;1272;53.332;9.860;2022-08-16T01:33:13;19.70;99.90
2523;DHT22;1272;53.332;9.860;2022-08-16T01:36:07;19.70;99.90
2523;DHT22;1272;53.332;9.860;2022-08-16T01:38:45;19.60;99.90
2523;DHT22;1272;53.332;9.860;2022-08-16T01:41:15;19.50;99.90
2523;DHT22;1272;53.332;9.860;2022-08-16T01:43:43;19.50;99.90
2523;DHT22;1272;53.332;9.860;2022-08-16T01:46:21;19.50;99.90
2523;DHT22;1272;53.332;9.860;2022-08-16T01:48:48;19.40;99.90
2523;DHT22;1272;53.332;9.860;2022-08-16T01:51:19;19.30;99.90
2523;DHT22;1272;53.332;9.860;2022-08-16T01:53:45;19.10;99.90
2523;DHT22;1272;53.332;9.860;2022-08-16T01:56:11;19.20;99.90
2523;DHT22;1272;53.332;9.860;2022-08-16T01:58:36;19.10;99.90
2523;DHT22;1272;53.332;9.860;2022-08-16T02:01:02;19.10;99.90
2523;DHT22;1272;53.332;9.860;2022-08-16T02:03:28;19.20;99.90
2523;DHT22;1272;53.332;9.860;2022-08-16T02:05:54;19.10;99.90
2523;DHT22;1272;53.332;9.860;2022-08-16T02:08:20;19.10;99.90
2523;DHT22;1272;53.332;9.860;2022-08-16T02:10:45;19.10;99.90
2523;DHT22;1272;53.332;9.860;2022-08-16T02:13:11;19.10;99.90
2523;DHT22;1272;53.332;9.860;2022-08-16T02:15:37;19.10;99.90
2523;DHT22;1272;53.332;9.860;2022-08-16T02:18:05;19.10;99.90
2523;DHT22;1272;53.332;9.860;2022-08-16T02:20:34;19.10;99.90
2523;DHT22;1272;53.332;9.860;2022-08-16T02:23:00;19.10;99.90
2523;DHT22;1272;53.332;9.860;2022-08-16T02:25:27;19.10;99.90
2523;DHT22;1272;53.332;9.860;2022-08-16T02:27:53;19.00;99.90
2523;DHT22;1272;53.332;9.860;2022-08-16T02:30:25;19.00;99.90
2523;DHT22;1272;53.332;9.860;2022-08-16T02:32:51;19.00;99.90
2523;DHT22;1272;53.332;9.860;2022-08-16T02:35:19;19.00;99.90
2523;DHT22;1272;53.332;9.860;2022-08-16T02:37:45;19.00;99.90
2523;DHT22;1272;53.332;9.860;2022-08-16T02:40:11;19.00;99.90
2523;DHT22;1272;53.332;9.860;2022-08-16T02:42:37;19.00;99.90
2523;DHT22;1272;53.332;9.860;2022-08-16T02:45:04;19.10;99.90
2523;DHT22;1272;53.332;9.860;2022-08-16T02:47:30;19.10;99.90
2523;DHT22;1272;53.332;9.860;2022-08-16T02:49:56;19.10;99.90
2523;DHT22;1272;53.332;9.860;2022-08-16T02:52:22;19.20;99.90
2523;DHT22;1272;53.332;9.860;2022-08-16T02:54:48;19.20;99.90
2523;DHT22;1272;53.332;9.860;2022-08-16T02:57:14;19.20;99.90
2523;DHT22;1272;53.332;9.860;2022-08-16T02:59:40;19.20;99.90
2523;DHT22;1272;53.332;9.860;2022-08-16T03:02:07;19.20;99.90
2523;DHT22;1272;53.332;9.860;2022-08-16T03:04:35;19.20;99.90
2523;DHT22;1272;53.332;9.860;2022-08-16T03:07:01;19.30;99.90
2523;DHT22;1272;53.332;9.860;2022-08-16T03:09:27;19.20;99.90
2523;DHT22;1272;53.332;9.860;2022-08-16T03:11:52;19.20;99.90
2523;DHT22;1272;53.332;9.860;2022-08-16T03:14:18;19.20;99.90
2523;DHT22;1272;53.332;9.860;2022-08-16T03:16:44;19.20;99.90
2523;DHT22;1272;53.332;9.860;2022-08-16T03:19:10;19.10;99.90
2523;DHT22;1272;53.332;9.860;2022-08-16T03:21:36;19.10;99.90
2523;DHT22;1272;53.332;9.860;2022-08-16T03:24:02;19.00;99.90
2523;DHT22;1272;53.332;9.860;2022-08-16T03:26:27;19.00;99.90
2523;DHT22;1272;53.332;9.860;2022-08-16T03:28:54;19.10;99.90
2523;DHT22;1272;53.332;9.860;2022-08-16T03:31:20;19.10;99.90
2523;DHT22;1272;53.332;9.860;2022-08-16T03:33:45;19.10;99.90
2523;DHT22;1272;53.332;9.860;2022-08-16T03:36:11;19.10;99.90
2523;DHT22;1272;53.332;9.860;2022-08-16T03:38:37;19.10;99.90
2523;DHT22;1272;53.332;9.860;2022-08-16T03:41:05;19.10;99.90
2523;DHT22;1272;53.332;9.860;2022-08-16T03:43:31;19.20;99.90
2523;DHT22;1272;53.332;9.860;2022-08-16T03:45:57;19.20;99.90
2523;DHT22;1272;53.332;9.860;2022-08-16T03:48:26;19.20;99.90
2523;DHT22;1272;53.332;9.860;2022-08-16T03:50:52;19.20;99.90
2523;DHT22;1272;53.332;9.860;2022-08-16T03:53:19;19.10;99.90
2523;DHT22;1272;53.332;9.860;2022-08-16T03:55:45;19.00;99.90
2523;DHT22;1272;53.332;9.860;2022-08-16T03:58:11;19.00;99.90
2523;DHT22;1272;53.332;9.860;2022-08-16T04:00:37;19.00;99.90
2523;DHT22;1272;53.332;9.860;2022-08-16T04:03:04;19.00;99.90
2523;DHT22;1272;53.332;9.860;2022-08-16T04:05:36;19.00;99.90
2523;DHT22;1272;53.332;9.860;2022-08-16T04:08:03;19.10;99.90
2523;DHT22;1272;53.332;9.860;2022-08-16T04:10:30;19.10;99.90
2523;DHT22;1272;53.332;9.860;2022-08-16T04:12:56;19.10;99.90
2523;DHT22;1272;53.332;9.860;2022-08-16T04:15:23;19.20;99.90
2523;DHT22;1272;53.332;9.860;2022-08-16T04:17:50;19.20;99.90
2523;DHT22;1272;53.332;9.860;2022-08-16T04:20:17;19.20;99.90
2523;DHT22;1272;53.332;9.860;2022-08-16T04:22:43;19.20;99.90
2523;DHT22;1272;53.332;9.860;2022-08-16T04:25:11;19.10;99.90
2523;DHT22;1272;53.332;9.860;2022-08-16T04:27:38;18.90;99.90
2523;DHT22;1272;53.332;9.860;2022-08-16T04:30:08;18.90;99.90
2523;DHT22;1272;53.332;9.860;2022-08-16T04:32:34;18.90;99.90
2523;DHT22;1272;53.332;9.860;2022-08-16T04:34:59;18.90;99.90
2523;DHT22;1272;53.332;9.860;2022-08-16T04:37:25;19.00;99.90
2523;DHT22;1272;53.332;9.860;2022-08-16T04:39:51;19.00;99.90
2523;DHT22;1272;53.332;9.860;2022-08-16T04:42:18;19.00;99.90
2523;DHT22;1272;53.332;9.860;2022-08-16T04:44:44;18.90;99.90
2523;DHT22;1272;53.332;9.860;2022-08-16T04:47:11;18.90;99.90
2523;DHT22;1272;53.332;9.860;2022-08-16T04:49:36;18.90;99.90
2523;DHT22;1272;53.332;9.860;2022-08-16T04:52:03;18.90;99.90
2523;DHT22;1272;53.332;9.860;2022-08-16T04:54:28;18.90;99.90
2523;DHT22;1272;53.332;9.860;2022-08-16T04:56:54;18.90;99.90
2523;DHT22;1272;53.332;9.860;2022-08-16T04:59:20;18.90;99.90
2523;DHT22;1272;53.332;9.860;2022-08-16T05:01:45;18.90;99.90
2523;DHT22;1272;53.332;9.860;2022-08-16T05:04:11;19.00;99.90
2523;DHT22;1272;53.332;9.860;2022-08-16T05:06:37;19.10;99.90
2523;DHT22;1272;53.332;9.860;2022-08-16T05:09:02;19.10;99.90
2523;DHT22;1272;53.332;9.860;2022-08-16T05:11:28;19.20;99.90
2523;DHT22;1272;53.332;9.860;2022-08-16T05:13:55;19.20;99.90
2523;DHT22;1272;53.332;9.860;2022-08-16T05:16:23;19.30;99.90
2523;DHT22;1272;53.332;9.860;2022-08-16T05:18:51;19.30;99.90
2523;DHT22;1272;53.332;9.860;2022-08-16T05:21:17;19.30;99.90
2523;DHT22;1272;53.332;9.860;2022-08-16T05:23:43;19.40;99.90
2523;DHT22;1272;53.332;9.860;2022-08-16T05:26:09;19.50;99.90
2523;DHT22;1272;53.332;9.860;2022-08-16T05:28:35;19.50;99.90
2523;DHT22;1272;53.332;9.860;2022-08-16T05:31:00;19.60;99.90
2523;DHT22;1272;53.332;9.860;2022-08-16T05:33:26;19.60;99.90
2523;DHT22;1272;53.332;9.860;2022-08-16T05:35:52;19.70;99.90
2523;DHT22;1272;53.332;9.860;2022-08-16T05:38:18;19.70;99.90
2523;DHT22;1272;53.332;9.860;2022-08-16T05:40:44;19.70;99.90
2523;DHT22;1272;53.332;9.860;2022-08-16T05:43:10;19.80;99.90
2523;DHT22;1272;53.332;9.860;2022-08-16T05:45:35;19.70;99.90
2523;DHT22;1272;53.332;9.860;2022-08-16T05:48:01;19.80;99.90
2523;DHT22;1272;53.332;9.860;2022-08-16T05:50:27;19.80;99.90
2523;DHT22;1272;53.332;9.860;2022-08-16T05:52:53;19.80;99.90
2523;DHT22;1272;53.332;9.860;2022-08-16T05:55:18;19.90;99.90
2523;DHT22;1272;53.332;9.860;2022-08-16T05:57:45;19.90;99.90
2523;DHT22;1272;53.332;9.860;2022-08-16T06:00:12;19.90;99.90
2523;DHT22;1272;53.332;9.860;2022-08-16T06:02:40;19.90;99.90
2523;DHT22;1272;53.332;9.860;2022-08-16T06:05:06;19.90;99.90
2523;DHT22;1272;53.332;9.860;2022-08-16T06:07:32;19.90;99.90
2523;DHT22;1272;53.332;9.860;2022-08-16T06:09:58;20.00;99.90
2523;DHT22;1272;53.332;9.860;2022-08-16T06:12:25;20.10;99.90
2523;DHT22;1272;53.332;9.860;2022-08-16T06:14:50;20.10;99.90
2523;DHT22;1272;53.332;9.860;2022-08-16T06:17:16;20.20;99.90
2523;DHT22;1272;53.332;9.860;2022-08-16T06:19:42;20.20;99.90
2523;DHT22;1272;53.332;9.860;2022-08-16T06:22:08;20.20;99.90
2523;DHT22;1272;53.332;9.860;2022-08-16T06:24:35;20.30;99.90
2523;DHT22;1272;53.332;9.860;2022-08-16T06:27:01;20.30;99.90
2523;DHT22;1272;53.332;9.860;2022-08-16T06:29:27;20.40;99.90
2523;DHT22;1272;53.332;9.860;2022-08-16T06:31:53;20.60;99.90
2523;DHT22;1272;53.332;9.860;2022-08-16T06:34:19;20.60;99.90
2523;DHT22;1272;53.332;9.860;2022-08-16T06:36:44;20.60;99.90
2523;DHT22;1272;53.332;9.860;2022-08-16T06:39:10;20.70;99.90
2523;DHT22;1272;53.332;9.860;2022-08-16T06:41:36;20.70;99.90
2523;DHT22;1272;53.332;9.860;2022-08-16T06:44:02;20.70;99.90
2523;DHT22;1272;53.332;9.860;2022-08-16T06:46:31;20.80;99.90
2523;DHT22;1272;53.332;9.860;2022-08-16T06:49:00;20.80;99.90
2523;DHT22;1272;53.332;9.860;2022-08-16T06:51:26;20.80;99.90
2523;DHT22;1272;53.332;9.860;2022-08-16T06:53:51;20.90;99.90
2523;DHT22;1272;53.332;9.860;2022-08-16T06:56:17;20.90;99.90
2523;DHT22;1272;53.332;9.860;2022-08-16T06:58:43;20.90;99.90
2523;DHT22;1272;53.332;9.860;2022-08-16T07:01:09;21.00;99.90
2523;DHT22;1272;53.332;9.860;2022-08-16T07:03:34;21.00;99.90
2523;DHT22;1272;53.332;9.860;2022-08-16T07:06:00;21.00;99.90
2523;DHT22;1272;53.332;9.860;2022-08-16T07:08:27;21.00;99.90
2523;DHT22;1272;53.332;9.860;2022-08-16T07:10:53;21.10;99.90
2523;DHT22;1272;53.332;9.860;2022-08-16T07:13:19;21.10;99.90
2523;DHT22;1272;53.332;9.860;2022-08-16T07:15:45;21.20;99.90
2523;DHT22;1272;53.332;9.860;2022-08-16T07:18:11;21.20;97.50
2523;DHT22;1272;53.332;9.860;2022-08-16T07:20:40;21.20;95.30
2523;DHT22;1272;53.332;9.860;2022-08-16T07:23:06;21.20;63.10
2523;DHT22;1272;53.332;9.860;2022-08-16T07:25:33;21.30;44.30
2523;DHT22;1272;53.332;9.860;2022-08-16T07:27:59;21.40;31.50
2523;DHT22;1272;53.332;9.860;2022-08-16T07:30:25;21.50;10.40
2523;DHT22;1272;53.332;9.860;2022-08-16T07:32:52;21.60;25.20
2523;DHT22;1272;53.332;9.860;2022-08-16T07:35:18;21.70;30.60
2523;DHT22;1272;53.332;9.860;2022-08-16T07:37:44;21.80;1.00
2523;DHT22;1272;53.332;9.860;2022-08-16T07:40:11;21.80;1.00
2523;DHT22;1272;53.332;9.860;2022-08-16T07:42:37;21.90;1.00
2523;DHT22;1272;53.332;9.860;2022-08-16T07:45:04;22.00;99.90
2523;DHT22;1272;53.332;9.860;2022-08-16T07:47:30;22.10;99.90
2523;DHT22;1272;53.332;9.860;2022-08-16T07:49:56;22.10;99.90
2523;DHT22;1272;53.332;9.860;2022-08-16T07:52:22;22.10;99.90
2523;DHT22;1272;53.332;9.860;2022-08-16T07:54:47;22.30;99.90
2523;DHT22;1272;53.332;9.860;2022-08-16T07:57:13;22.30;99.90
2523;DHT22;1272;53.332;9.860;2022-08-16T07:59:39;22.50;1.00
2523;DHT22;1272;53.332;9.860;2022-08-16T08:02:05;22.60;99.90
2523;DHT22;1272;53.332;9.860;2022-08-16T08:04:31;22.80;99.90
2523;DHT22;1272;53.332;9.860;2022-08-16T08:06:58;22.90;99.90
2523;DHT22;1272;53.332;9.860;2022-08-16T08:09:24;23.00;41.50
2523;DHT22;1272;53.332;9.860;2022-08-16T08:11:50;23.10;1.00
2523;DHT22;1272;53.332;9.860;2022-08-16T08:14:15;23.10;99.90
2523;DHT22;1272;53.332;9.860;2022-08-16T08:16:41;23.10;1.00
2523;DHT22;1272;53.332;9.860;2022-08-16T08:19:08;23.20;1.00
2523;DHT22;1272;53.332;9.860;2022-08-16T08:21:38;23.20;99.90
2523;DHT22;1272;53.332;9.860;2022-08-16T08:24:05;23.30;99.90
2523;DHT22;1272;53.332;9.860;2022-08-16T08:26:33;23.30;1.00
2523;DHT22;1272;53.332;9.860;2022-08-16T08:28:59;23.40;99.90
2523;DHT22;1272;53.332;9.860;2022-08-16T08:31:25;23.50;99.90
2523;DHT22;1272;53.332;9.860;2022-08-16T08:33:51;23.50;99.90
2523;DHT22;1272;53.332;9.860;2022-08-16T08:36:26;23.60;1.00
2523;DHT22;1272;53.332;9.860;2022-08-16T08:38:52;23.70;99.90
2523;DHT22;1272;53.332;9.860;2022-08-16T08:41:18;23.70;99.90
2523;DHT22;1272;53.332;9.860;2022-08-16T08:43:45;23.70;99.90
2523;DHT22;1272;53.332;9.860;2022-08-16T08:46:10;23.60;99.90
2523;DHT22;1272;53.332;9.860;2022-08-16T08:48:36;23.50;1.00
2523;DHT22;1272;53.332;9.860;2022-08-16T08:51:04;23.50;99.90
2523;DHT22;1272;53.332;9.860;2022-08-16T08:53:30;23.70;99.90
2523;DHT22;1272;53.332;9.860;2022-08-16T08:55:57;23.70;99.90
2523;DHT22;1272;53.332;9.860;2022-08-16T08:58:23;23.90;1.00
2523;DHT22;1272;53.332;9.860;2022-08-16T09:00:49;23.90;84.00
2523;DHT22;1272;53.332;9.860;2022-08-16T09:03:15;24.00;1.00
2523;DHT22;1272;53.332;9.860;2022-08-16T09:05:42;24.00;10.40
2523;DHT22;1272;53.332;9.860;2022-08-16T09:08:09;24.10;99.90
2523;DHT22;1272;53.332;9.860;2022-08-16T09:10:35;24.30;99.90
2523;DHT22;1272;53.332;9.860;2022-08-16T09:13:00;24.40;99.90
2523;DHT22;1272;53.332;9.860;2022-08-16T09:15:26;24.50;99.90
2523;DHT22;1272;53.332;9.860;2022-08-16T09:17:52;24.60;99.90
2523;DHT22;1272;53.332;9.860;2022-08-16T09:20:21;24.70;1.00
2523;DHT22;1272;53.332;9.860;2022-08-16T09:22:48;24.80;5.50
2523;DHT22;1272;53.332;9.860;2022-08-16T09:25:15;24.90;1.00
2523;DHT22;1272;53.332;9.860;2022-08-16T09:27:41;25.00;99.90
2523;DHT22;1272;53.332;9.860;2022-08-16T09:30:07;25.00;99.90
2523;DHT22;1272;53.332;9.860;2022-08-16T09:32:34;25.00;99.90
2523;DHT22;1272;53.332;9.860;2022-08-16T09:35:02;25.00;1.00
2523;DHT22;1272;53.332;9.860;2022-08-16T09:37:29;25.00;1.00
2523;DHT22;1272;53.332;9.860;2022-08-16T09:39:57;24.90;1.00
2523;DHT22;1272;53.332;9.860;2022-08-16T09:42:23;24.90;1.00
2523;DHT22;1272;53.332;9.860;2022-08-16T09:44:48;25.00;1.00
2523;DHT22;1272;53.332;9.860;2022-08-16T09:47:15;25.00;1.00
2523;DHT22;1272;53.332;9.860;2022-08-16T09:49:40;24.90;1.00
2523;DHT22;1272;53.332;9.860;2022-08-16T09:52:06;24.90;1.00
2523;DHT22;1272;53.332;9.860;2022-08-16T09:54:32;24.90;99.90
2523;DHT22;1272;53.332;9.860;2022-08-16T09:56:58;24.80;99.90
2523;DHT22;1272;53.332;9.860;2022-08-16T09:59:25;24.90;75.70
2523;DHT22;1272;53.332;9.860;2022-08-16T10:01:51;25.00;1.00
2523;DHT22;1272;53.332;9.860;2022-08-16T10:04:18;25.30;1.00
2523;DHT22;1272;53.332;9.860;2022-08-16T10:06:45;25.60;1.00
2523;DHT22;1272;53.332;9.860;2022-08-16T10:09:12;26.00;55.20
2523;DHT22;1272;53.332;9.860;2022-08-16T10:11:40;26.30;1.00
2523;DHT22;1272;53.332;9.860;2022-08-16T10:14:25;26.40;1.00
2523;DHT22;1272;53.332;9.860;2022-08-16T10:16:56;26.60;1.00
2523;DHT22;1272;53.332;9.860;2022-08-16T10:19:21;26.80;1.00
2523;DHT22;1272;53.332;9.860;2022-08-16T10:21:47;27.00;99.90
2523;DHT22;1272;53.332;9.860;2022-08-16T10:24:14;27.10;99.90
2523;DHT22;1272;53.332;9.860;2022-08-16T10:26:41;27.20;99.90
2523;DHT22;1272;53.332;9.860;2022-08-16T10:29:06;27.40;75.20
2523;DHT22;1272;53.332;9.860;2022-08-16T10:31:33;27.50;1.00
2523;DHT22;1272;53.332;9.860;2022-08-16T10:33:59;27.50;1.00
2523;DHT22;1272;53.332;9.860;2022-08-16T10:36:26;27.50;1.00
2523;DHT22;1272;53.332;9.860;2022-08-16T10:38:52;27.80;1.00
2523;DHT22;1272;53.332;9.860;2022-08-16T10:41:18;27.90;1.00
2523;DHT22;1272;53.332;9.860;2022-08-16T10:43:43;28.00;99.90
2523;DHT22;1272;53.332;9.860;2022-08-16T10:46:13;28.20;99.90
2523;DHT22;1272;53.332;9.860;2022-08-16T10:48:41;28.40;1.00
2523;DHT22;1272;53.332;9.860;2022-08-16T10:51:07;28.70;99.90
2523;DHT22;1272;53.332;9.860;2022-08-16T10:53:33;28.80;99.90
2523;DHT22;1272;53.332;9.860;2022-08-16T10:56:03;28.90;99.90
2523;DHT22;1272;53.332;9.860;2022-08-16T10:58:31;28.70;99.90
2523;DHT22;1272;53.332;9.860;2022-08-16T11:00:58;28.50;99.90
2523;DHT22;1272;53.332;9.860;2022-08-16T11:03:23;28.50;99.90
2523;DHT22;1272;53.332;9.860;2022-08-16T11:05:50;28.60;99.90
2523;DHT22;1272;53.332;9.860;2022-08-16T11:08:16;28.50;99.90
2523;DHT22;1272;53.332;9.860;2022-08-16T11:10:44;28.60;99.90
2523;DHT22;1272;53.332;9.860;2022-08-16T11:13:15;29.10;99.90
2523;DHT22;1272;53.332;9.860;2022-08-16T11:15:41;29.40;99.90
2523;DHT22;1272;53.332;9.860;2022-08-16T11:18:10;29.10;36.10
2523;DHT22;1272;53.332;9.860;2022-08-16T11:20:38;28.80;55.20
2523;DHT22;1272;53.332;9.860;2022-08-16T11:23:04;28.50;99.90
2523;DHT22;1272;53.332;9.860;2022-08-16T11:25:31;28.00;99.90
2523;DHT22;1272;53.332;9.860;2022-08-16T11:27:58;27.40;1.00
2523;DHT22;1272;53.332;9.860;2022-08-16T11:30:25;26.50;1.00
2523;DHT22;1272;53.332;9.860;2022-08-16T11:32:52;25.80;99.90
2523;DHT22;1272;53.332;9.860;2022-08-16T11:35:24;25.30;99.90
2523;DHT22;1272;53.332;9.860;2022-08-16T11:37:56;25.30;1.00
2523;DHT22;1272;53.332;9.860;2022-08-16T11:40:25;25.30;1.00
2523;DHT22;1272;53.332;9.860;2022-08-16T11:42:51;25.40;99.90
2523;DHT22;1272;53.332;9.860;2022-08-16T11:45:17;25.50;1.00
2523;DHT22;1272;53.332;9.860;2022-08-16T11:47:43;25.50;1.00
2523;DHT22;1272;53.332;9.860;2022-08-16T11:50:09;25.60;99.90
2523;DHT22;1272;53.332;9.860;2022-08-16T11:52:36;25.60;1.00
2523;DHT22;1272;53.332;9.860;2022-08-16T11:55:05;25.60;1.00
2523;DHT22;1272;53.332;9.860;2022-08-16T11:57:31;25.40;99.90
2523;DHT22;1272;53.332;9.860;2022-08-16T11:59:56;25.60;99.90
2523;DHT22;1272;53.332;9.860;2022-08-16T12:02:22;25.60;20.20
2523;DHT22;1272;53.332;9.860;2022-08-16T12:04:48;25.70;1.00
2523;DHT22;1272;53.332;9.860;2022-08-16T12:07:13;25.90;1.00
2523;DHT22;1272;53.332;9.860;2022-08-16T12:09:39;26.30;1.00
2523;DHT22;1272;53.332;9.860;2022-08-16T12:12:05;26.50;99.90
2523;DHT22;1272;53.332;9.860;2022-08-16T12:14:32;26.70;99.90
2523;DHT22;1272;53.332;9.860;2022-08-16T12:16:59;27.10;1.00
2523;DHT22;1272;53.332;9.860;2022-08-16T12:19:27;27.40;1.00
2523;DHT22;1272;53.332;9.860;2022-08-16T12:21:53;27.50;1.00
2523;DHT22;1272;53.332;9.860;2022-08-16T12:24:19;27.90;99.90
2523;DHT22;1272;53.332;9.860;2022-08-16T12:26:45;28.40;73.20
2523;DHT22;1272;53.332;9.860;2022-08-16T12:29:11;28.70;1.00
2523;DHT22;1272;53.332;9.860;2022-08-16T12:31:37;29.00;1.00
2523;DHT22;1272;53.332;9.860;2022-08-16T12:34:03;29.30;99.90
2523;DHT22;1272;53.332;9.860;2022-08-16T12:36:33;29.40;99.90
2523;DHT22;1272;53.332;9.860;2022-08-16T12:39:05;29.40;99.90
2523;DHT22;1272;53.332;9.860;2022-08-16T12:41:32;29.10;99.90
2523;DHT22;1272;53.332;9.860;2022-08-16T12:44:00;28.70;99.90
2523;DHT22;1272;53.332;9.860;2022-08-16T12:46:28;28.70;99.90
2523;DHT22;1272;53.332;9.860;2022-08-16T12:48:54;28.80;99.90
2523;DHT22;1272;53.332;9.860;2022-08-16T12:51:36;28.80;1.00
2523;DHT22;1272;53.332;9.860;2022-08-16T12:54:04;29.00;1.00
2523;DHT22;1272;53.332;9.860;2022-08-16T12:56:35;29.30;99.90
2523;DHT22;1272;53.332;9.860;2022-08-16T12:59:06;29.50;99.90
2523;DHT22;1272;53.332;9.860;2022-08-16T13:01:35;29.80;99.90
2523;DHT22;1272;53.332;9.860;2022-08-16T13:04:03;29.60;58.60
2523;DHT22;1272;53.332;9.860;2022-08-16T13:06:32;29.60;99.90
2523;DHT22;1272;53.332;9.860;2022-08-16T13:08:58;29.60;64.60
2523;DHT22;1272;53.332;9.860;2022-08-16T13:11:38;29.90;83.60
2523;DHT22;1272;53.332;9.860;2022-08-16T13:14:10;30.30;39.50
2523;DHT22;1272;53.332;9.860;2022-08-16T13:16:36;30.50;26.40
2523;DHT22;1272;53.332;9.860;2022-08-16T13:19:02;30.60;1.00
2523;DHT22;1272;53.332;9.860;2022-08-16T13:21:28;30.70;1.00
2523;DHT22;1272;53.332;9.860;2022-08-16T13:23:53;30.90;1.00
2523;DHT22;1272;53.332;9.860;2022-08-16T13:26:19;31.10;1.00
2523;DHT22;1272;53.332;9.860;2022-08-16T13:28:45;31.30;1.00
2523;DHT22;1272;53.332;9.860;2022-08-16T13:31:11;31.10;1.00
2523;DHT22;1272;53.332;9.860;2022-08-16T13:33:36;30.90;1.00
2523;DHT22;1272;53.332;9.860;2022-08-16T13:36:07;30.70;1.00
2523;DHT22;1272;53.332;9.860;2022-08-16T13:38:34;30.90;1.00
2523;DHT22;1272;53.332;9.860;2022-08-16T13:41:00;30.90;1.00
2523;DHT22;1272;53.332;9.860;2022-08-16T13:43:29;30.70;1.00
2523;DHT22;1272;53.332;9.860;2022-08-16T13:45:56;30.70;1.00
2523;DHT22;1272;53.332;9.860;2022-08-16T13:48:25;30.60;1.00
2523;DHT22;1272;53.332;9.860;2022-08-16T13:50:55;30.40;1.00
2523;DHT22;1272;53.332;9.860;2022-08-16T13:53:21;30.10;1.00
2523;DHT22;1272;53.332;9.860;2022-08-16T13:55:48;29.70;1.00
2523;DHT22;1272;53.332;9.860;2022-08-16T13:58:14;29.50;1.00
2523;DHT22;1272;53.332;9.860;2022-08-16T14:00:39;29.20;1.00
2523;DHT22;1272;53.332;9.860;2022-08-16T14:03:07;28.90;1.00
2523;DHT22;1272;53.332;9.860;2022-08-16T14:05:33;28.80;1.00
2523;DHT22;1272;53.332;9.860;2022-08-16T14:07:58;28.60;1.00
2523;DHT22;1272;53.332;9.860;2022-08-16T14:10:24;28.50;1.00
2523;DHT22;1272;53.332;9.860;2022-08-16T14:12:50;28.40;1.00
2523;DHT22;1272;53.332;9.860;2022-08-16T14:15:16;28.30;1.00
2523;DHT22;1272;53.332;9.860;2022-08-16T14:17:43;28.30;1.00
2523;DHT22;1272;53.332;9.860;2022-08-16T14:20:10;28.20;1.00
2523;DHT22;1272;53.332;9.860;2022-08-16T14:22:38;28.10;24.20
2523;DHT22;1272;53.332;9.860;2022-08-16T14:25:06;28.00;44.30
2523;DHT22;1272;53.332;9.860;2022-08-16T14:27:33;27.90;34.30
2523;DHT22;1272;53.332;9.860;2022-08-16T14:30:00;28.00;99.90
2523;DHT22;1272;53.332;9.860;2022-08-16T14:32:27;27.70;99.90
2523;DHT22;1272;53.332;9.860;2022-08-16T14:34:55;27.60;99.90
2523;DHT22;1272;53.332;9.860;2022-08-16T14:37:23;27.50;99.90
2523;DHT22;1272;53.332;9.860;2022-08-16T14:39:48;27.40;99.90
2523;DHT22;1272;53.332;9.860;2022-08-16T14:42:21;27.30;1.00
2523;DHT22;1272;53.332;9.860;2022-08-16T14:44:48;27.50;1.00
2523;DHT22;1272;53.332;9.860;2022-08-16T14:47:14;27.90;99.90
2523;DHT22;1272;53.332;9.860;2022-08-16T14:49:40;28.60;99.90
2523;DHT22;1272;53.332;9.860;2022-08-16T14:52:15;29.30;30.00
2523;DHT22;1272;53.332;9.860;2022-08-16T14:54:43;29.80;1.00
2523;DHT22;1272;53.332;9.860;2022-08-16T14:57:10;29.90;1.00
2523;DHT22;1272;53.332;9.860;2022-08-16T14:59:36;29.80;9.40
2523;DHT22;1272;53.332;9.860;2022-08-16T15:02:03;29.70;70.20
2523;DHT22;1272;53.332;9.860;2022-08-16T15:04:30;29.70;1.00
2523;DHT22;1272;53.332;9.860;2022-08-16T15:06:57;30.00;1.00
2523;DHT22;1272;53.332;9.860;2022-08-16T15:09:23;30.30;1.00
2523;DHT22;1272;53.332;9.860;2022-08-16T15:11:49;30.60;1.00
2523;DHT22;1272;53.332;9.860;2022-08-16T15:14:16;30.80;1.00
2523;DHT22;1272;53.332;9.860;2022-08-16T15:16:42;31.10;1.00
2523;DHT22;1272;53.332;9.860;2022-08-16T15:19:08;31.40;1.00
2523;DHT22;1272;53.332;9.860;2022-08-16T15:21:34;31.70;1.00
2523;DHT22;1272;53.332;9.860;2022-08-16T15:24:00;31.80;1.00
2523;DHT22;1272;53.332;9.860;2022-08-16T15:26:26;31.70;1.00
2523;DHT22;1272;53.332;9.860;2022-08-16T15:28:51;31.40;1.00
2523;DHT22;1272;53.332;9.860;2022-08-16T15:31:18;31.10;1.00
2523;DHT22;1272;53.332;9.860;2022-08-16T15:33:47;31.10;1.00
2523;DHT22;1272;53.332;9.860;2022-08-16T15:36:15;31.40;1.00
2523;DHT22;1272;53.332;9.860;2022-08-16T15:38:47;31.40;1.00
2523;DHT22;1272;53.332;9.860;2022-08-16T15:44:06;31.50;1.00
2523;DHT22;1272;53.332;9.860;2022-08-16T15:46:32;31.70;1.00
2523;DHT22;1272;53.332;9.860;2022-08-16T15:48:58;31.60;1.00
2523;DHT22;1272;53.332;9.860;2022-08-16T15:51:24;31.40;1.00
2523;DHT22;1272;53.332;9.860;2022-08-16T15:53:50;31.20;1.00
2523;DHT22;1272;53.332;9.860;2022-08-16T15:56:18;31.30;1.00
2523;DHT22;1272;53.332;9.860;2022-08-16T15:58:43;31.50;1.00
2523;DHT22;1272;53.332;9.860;2022-08-16T16:01:09;31.60;1.00
2523;DHT22;1272;53.332;9.860;2022-08-16T16:03:35;31.60;1.00
2523;DHT22;1272;53.332;9.860;2022-08-16T16:06:02;31.40;1.00
2523;DHT22;1272;53.332;9.860;2022-08-16T16:08:29;31.20;1.00
2523;DHT22;1272;53.332;9.860;2022-08-16T16:10:59;31.30;1.00